sensor_id;sensor_type;location;lat;lon;timestamp;pressure;altitude;pressure_sealevel;temperature;humidity
61674;BME280;47573;43.832;5.974;2023-10-09T00:05:20;96042.69;;;30.09;41.87
61674;BME280;47573;43.832;5.974;2023-10-09T00:12:03;96048.19;;;30.09;41.97
61674;BME280;47573;43.832;5.974;2023-10-09T00:18:44;96044.88;;;30.07;41.85
61674;BME280;47573;43.832;5.974;2023-10-09T00:25:24;96043.22;;;30.06;42.20
61674;BME280;47573;43.832;5.974;2023-10-09T00:32:06;96038.25;;;30.03;42.22
61674;BME280;47573;43.832;5.974;2023-10-09T00:38:47;96040.44;;;30.01;42.23
61674;BME280;47573;43.832;5.974;2023-10-09T00:45:27;96032.75;;;30.03;42.78
61674;BME280;47573;43.832;5.974;2023-10-09T00:52:10;96034.94;;;30.01;42.42
61674;BME280;47573;43.832;5.974;2023-10-09T00:58:51;96027.75;;;30.00;42.53
61674;BME280;47573;43.832;5.974;2023-10-09T01:05:33;96017.88;;;29.99;42.57
61674;BME280;47573;43.832;5.974;2023-10-09T01:12:15;96016.19;;;29.98;42.71
61674;BME280;47573;43.832;5.974;2023-10-09T01:18:55;96005.47;;;29.97;42.82
61674;BME280;47573;43.832;5.974;2023-10-09T01:25:37;96007.66;;;29.95;42.77
61674;BME280;47573;43.832;5.974;2023-10-09T01:32:18;95997.72;;;29.94;42.64
61674;BME280;47573;43.832;5.974;2023-10-09T01:38:59;96000.75;;;29.92;42.59
61674;BME280;47573;43.832;5.974;2023-10-09T01:45:41;95998.84;;;29.93;42.71
61674;BME280;47573;43.832;5.974;2023-10-09T01:52:21;95994.41;;;29.92;42.93
61674;BME280;47573;43.832;5.974;2023-10-09T01:59:02;95999.13;;;29.91;42.76
61674;BME280;47573;43.832;5.974;2023-10-09T02:05:44;96000.19;;;29.90;42.93
61674;BME280;47573;43.832;5.974;2023-10-09T02:12:25;95997.44;;;29.90;42.63
61674;BME280;47573;43.832;5.974;2023-10-09T02:19:05;95993.59;;;29.86;42.80
61674;BME280;47573;43.832;5.974;2023-10-09T02:25:47;95995.25;;;29.87;42.79
61674;BME280;47573;43.832;5.974;2023-10-09T02:32:28;95990.84;;;29.86;42.99
61674;BME280;47573;43.832;5.974;2023-10-09T02:39:08;95990.28;;;29.84;42.74
61674;BME280;47573;43.832;5.974;2023-10-09T02:45:50;95986.44;;;29.85;42.87
61674;BME280;47573;43.832;5.974;2023-10-09T02:52:31;95983.13;;;29.83;43.02
61674;BME280;47573;43.832;5.974;2023-10-09T02:59:12;95987.53;;;29.84;43.06
61674;BME280;47573;43.832;5.974;2023-10-09T03:05:53;95988.09;;;29.81;43.24
61674;BME280;47573;43.832;5.974;2023-10-09T03:12:34;95987.78;;;29.78;43.22
61674;BME280;47573;43.832;5.974;2023-10-09T03:19:15;95993.03;;;29.79;42.93
61674;BME280;47573;43.832;5.974;2023-10-09T03:25:57;95994.94;;;29.79;43.29
61674;BME280;47573;43.832;5.974;2023-10-09T03:32:38;95992.44;;;29.77;43.48
61674;BME280;47573;43.832;5.974;2023-10-09T03:39:18;95984.75;;;29.74;43.66
61674;BME280;47573;43.832;5.974;2023-10-09T03:46:00;95996.25;;;29.71;40.35
61674;BME280;47573;43.832;5.974;2023-10-09T03:52:41;95996.72;;;29.53;38.49
61674;BME280;47573;43.832;5.974;2023-10-09T03:59:21;95995.47;;;29.24;39.47
61674;BME280;47573;43.832;5.974;2023-10-09T04:06:03;95997.47;;;28.92;38.92
61674;BME280;47573;43.832;5.974;2023-10-09T04:12:44;95994.53;;;28.67;39.26
61674;BME280;47573;43.832;5.974;2023-10-09T04:19:24;96002.09;;;28.54;39.27
61674;BME280;47573;43.832;5.974;2023-10-09T04:26:06;96003.34;;;28.42;39.47
61674;BME280;47573;43.832;5.974;2023-10-09T04:32:46;95998.16;;;28.45;39.21
61674;BME280;47573;43.832;5.974;2023-10-09T04:39:27;95989.56;;;28.37;39.25
61674;BME280;47573;43.832;5.974;2023-10-09T04:46:09;95998.16;;;28.45;39.48
61674;BME280;47573;43.832;5.974;2023-10-09T04:52:50;95997.53;;;28.38;39.56
61674;BME280;47573;43.832;5.974;2023-10-09T04:59:30;96001.88;;;28.29;39.53
61674;BME280;47573;43.832;5.974;2023-10-09T05:06:13;95998.91;;;28.36;40.04
61674;BME280;47573;43.832;5.974;2023-10-09T05:12:53;96009.00;;;28.30;40.06
61674;BME280;47573;43.832;5.974;2023-10-09T05:19:34;96016.75;;;28.38;39.79
61674;BME280;47573;43.832;5.974;2023-10-09T05:26:16;96014.00;;;28.38;39.61
61674;BME280;47573;43.832;5.974;2023-10-09T05:32:56;96018.47;;;28.18;39.84
61674;BME280;47573;43.832;5.974;2023-10-09T05:39:37;96023.19;;;28.22;39.41
61674;BME280;47573;43.832;5.974;2023-10-09T05:46:19;96019.22;;;28.08;39.91
61674;BME280;47573;43.832;5.974;2023-10-09T05:53:00;96025.22;;;28.05;39.50
61674;BME280;47573;43.832;5.974;2023-10-09T05:59:41;96027.16;;;28.05;39.51
61674;BME280;47573;43.832;5.974;2023-10-09T06:06:23;96038.91;;;28.00;39.68
61674;BME280;47573;43.832;5.974;2023-10-09T06:13:03;96039.41;;;27.97;39.56
61674;BME280;47573;43.832;5.974;2023-10-09T06:19:44;96043.94;;;28.08;39.46
61674;BME280;47573;43.832;5.974;2023-10-09T06:26:26;96057.47;;;28.15;39.86
61674;BME280;47573;43.832;5.974;2023-10-09T06:33:06;96043.41;;;28.11;40.39
61674;BME280;47573;43.832;5.974;2023-10-09T06:39:47;96046.16;;;28.11;40.15
61674;BME280;47573;43.832;5.974;2023-10-09T06:46:29;96058.91;;;28.22;40.27
61674;BME280;47573;43.832;5.974;2023-10-09T06:53:10;96062.31;;;28.34;40.91
61674;BME280;47573;43.832;5.974;2023-10-09T06:59:50;96065.13;;;28.39;41.12
61674;BME280;47573;43.832;5.974;2023-10-09T07:06:32;96068.53;;;28.51;40.13
61674;BME280;47573;43.832;5.974;2023-10-09T07:13:13;96066.81;;;28.67;40.79
61674;BME280;47573;43.832;5.974;2023-10-09T07:19:54;96080.88;;;28.76;40.01
61674;BME280;47573;43.832;5.974;2023-10-09T07:26:36;96081.28;;;28.89;41.98
61674;BME280;47573;43.832;5.974;2023-10-09T07:33:16;96082.41;;;28.93;42.25
61674;BME280;47573;43.832;5.974;2023-10-09T07:39:57;96082.22;;;29.05;42.24
61674;BME280;47573;43.832;5.974;2023-10-09T07:46:39;96085.09;;;29.15;42.18
61674;BME280;47573;43.832;5.974;2023-10-09T07:53:19;96091.75;;;29.19;41.55
61674;BME280;47573;43.832;5.974;2023-10-09T08:00:00;96098.88;;;29.20;41.62
61674;BME280;47573;43.832;5.974;2023-10-09T08:06:43;96106.63;;;29.23;41.58
61674;BME280;47573;43.832;5.974;2023-10-09T08:13:23;96103.88;;;29.28;41.60
61674;BME280;47573;43.832;5.974;2023-10-09T08:20:05;96109.72;;;29.31;41.65
61674;BME280;47573;43.832;5.974;2023-10-09T08:26:47;96113.88;;;29.39;41.63
61674;BME280;47573;43.832;5.974;2023-10-09T08:33:28;96115.00;;;29.43;41.35
61674;BME280;47573;43.832;5.974;2023-10-09T08:40:09;96113.09;;;29.49;41.66
61674;BME280;47573;43.832;5.974;2023-10-09T08:46:52;96117.25;;;29.51;41.48
61674;BME280;47573;43.832;5.974;2023-10-09T08:53:34;96109.84;;;29.57;41.60
61674;BME280;47573;43.832;5.974;2023-10-09T09:00:17;96112.91;;;29.60;41.24
61674;BME280;47573;43.832;5.974;2023-10-09T09:06:59;96112.41;;;29.68;41.37
61674;BME280;47573;43.832;5.974;2023-10-09T09:13:40;96111.88;;;29.71;41.28
61674;BME280;47573;43.832;5.974;2023-10-09T09:20:22;96100.38;;;29.74;41.37
61674;BME280;47573;43.832;5.974;2023-10-09T09:27:05;96093.19;;;29.73;41.47
61674;BME280;47573;43.832;5.974;2023-10-09T09:33:47;96103.16;;;29.79;41.22
61674;BME280;47573;43.832;5.974;2023-10-09T09:40:36;96087.75;;;29.83;41.15
61674;BME280;47573;43.832;5.974;2023-10-09T09:47:18;96088.59;;;29.89;41.19
61674;BME280;47573;43.832;5.974;2023-10-09T09:53:59;96088.31;;;29.90;41.25
61674;BME280;47573;43.832;5.974;2023-10-09T10:00:39;96087.25;;;29.96;41.13
61674;BME280;47573;43.832;5.974;2023-10-09T10:07:22;96087.28;;;30.01;41.11
61674;BME280;47573;43.832;5.974;2023-10-09T10:14:03;96087.84;;;30.08;41.07
61674;BME280;47573;43.832;5.974;2023-10-09T10:21:11;96082.06;;;30.15;41.13
61674;BME280;47573;43.832;5.974;2023-10-09T10:28:15;96074.16;;;30.29;41.26
61674;BME280;47573;43.832;5.974;2023-10-09T10:34:56;96066.19;;;30.32;40.99
61674;BME280;47573;43.832;5.974;2023-10-09T10:41:37;96055.72;;;30.44;40.52
61674;BME280;47573;43.832;5.974;2023-10-09T10:48:19;96045.00;;;30.48;40.11
61674;BME280;47573;43.832;5.974;2023-10-09T10:55:07;96038.94;;;30.51;40.04
61674;BME280;47573;43.832;5.974;2023-10-09T11:01:48;96039.22;;;30.54;40.04
61674;BME280;47573;43.832;5.974;2023-10-09T11:08:30;96029.56;;;30.57;39.89
61674;BME280;47573;43.832;5.974;2023-10-09T11:15:11;96029.59;;;30.62;40.08
61674;BME280;47573;43.832;5.974;2023-10-09T11:21:52;96013.03;;;30.62;40.13
61674;BME280;47573;43.832;5.974;2023-10-09T11:28:34;96011.94;;;30.63;39.95
61674;BME280;47573;43.832;5.974;2023-10-09T11:35:15;95998.69;;;30.65;40.32
61674;BME280;47573;43.832;5.974;2023-10-09T11:42:00;95994.84;;;30.66;40.19
61674;BME280;47573;43.832;5.974;2023-10-09T11:48:42;95985.47;;;30.72;40.23
61674;BME280;47573;43.832;5.974;2023-10-09T11:55:22;95984.34;;;30.73;40.66
61674;BME280;47573;43.832;5.974;2023-10-09T12:02:03;95977.75;;;30.74;40.47
61674;BME280;47573;43.832;5.974;2023-10-09T12:08:46;95964.50;;;30.76;40.46
61674;BME280;47573;43.832;5.974;2023-10-09T12:15:26;95956.78;;;30.78;40.81
61674;BME280;47573;43.832;5.974;2023-10-09T12:22:08;95952.38;;;30.82;40.97
61674;BME280;47573;43.832;5.974;2023-10-09T12:28:50;95946.91;;;30.87;40.45
61674;BME280;47573;43.832;5.974;2023-10-09T12:35:30;95934.75;;;30.88;40.59
61674;BME280;47573;43.832;5.974;2023-10-09T12:42:11;95939.13;;;30.94;40.66
61674;BME280;47573;43.832;5.974;2023-10-09T12:48:53;95920.94;;;30.98;40.53
61674;BME280;47573;43.832;5.974;2023-10-09T12:55:37;95912.09;;;31.01;40.71
61674;BME280;47573;43.832;5.974;2023-10-09T13:02:17;95908.38;;;31.36;40.66
61674;BME280;47573;43.832;5.974;2023-10-09T13:08:59;95899.84;;;31.47;40.35
61674;BME280;47573;43.832;5.974;2023-10-09T13:15:40;95901.47;;;31.53;40.25
61674;BME280;47573;43.832;5.974;2023-10-09T13:22:21;95894.25;;;31.57;40.43
61674;BME280;47573;43.832;5.974;2023-10-09T13:29:03;95897.50;;;31.64;40.63
61674;BME280;47573;43.832;5.974;2023-10-09T13:35:44;95893.06;;;31.73;40.13
61674;BME280;47573;43.832;5.974;2023-10-09T13:42:24;95889.19;;;31.75;40.62
61674;BME280;47573;43.832;5.974;2023-10-09T13:49:06;95881.69;;;31.80;40.15
61674;BME280;47573;43.832;5.974;2023-10-09T13:55:47;95873.41;;;31.80;40.47
61674;BME280;47573;43.832;5.974;2023-10-09T14:02:27;95866.50;;;31.83;40.33
61674;BME280;47573;43.832;5.974;2023-10-09T14:09:09;95867.03;;;31.85;40.40
61674;BME280;47573;43.832;5.974;2023-10-09T14:15:50;95860.06;;;31.92;40.46
61674;BME280;47573;43.832;5.974;2023-10-09T14:22:30;95853.16;;;31.90;40.74
61674;BME280;47573;43.832;5.974;2023-10-09T14:29:12;95852.06;;;31.91;40.92
61674;BME280;47573;43.832;5.974;2023-10-09T14:35:54;95839.91;;;31.92;41.02
61674;BME280;47573;43.832;5.974;2023-10-09T14:42:35;95836.91;;;31.93;40.98
61674;BME280;47573;43.832;5.974;2023-10-09T14:49:17;95834.91;;;31.99;40.52
61674;BME280;47573;43.832;5.974;2023-10-09T14:55:57;95840.44;;;31.99;40.93
61674;BME280;47573;43.832;5.974;2023-10-09T15:02:38;95830.59;;;31.83;40.70
61674;BME280;47573;43.832;5.974;2023-10-09T15:09:20;95829.56;;;31.68;41.47
61674;BME280;47573;43.832;5.974;2023-10-09T15:16:01;95822.41;;;31.67;41.71
61674;BME280;47573;43.832;5.974;2023-10-09T15:22:42;95816.28;;;31.70;41.83
61674;BME280;47573;43.832;5.974;2023-10-09T15:29:25;95816.81;;;31.78;41.14
61674;BME280;47573;43.832;5.974;2023-10-09T15:36:12;95820.09;;;31.80;39.40
61674;BME280;47573;43.832;5.974;2023-10-09T15:42:53;95826.22;;;31.77;38.54
61674;BME280;47573;43.832;5.974;2023-10-09T15:49:35;95822.53;;;31.86;38.06
61674;BME280;47573;43.832;5.974;2023-10-09T15:56:15;95823.31;;;31.92;38.01
61674;BME280;47573;43.832;5.974;2023-10-09T16:02:56;95823.63;;;31.95;36.79
61674;BME280;47573;43.832;5.974;2023-10-09T16:09:38;95830.50;;;31.93;36.33
61674;BME280;47573;43.832;5.974;2023-10-09T16:16:24;95828.94;;;31.82;36.23
61674;BME280;47573;43.832;5.974;2023-10-09T16:23:05;95825.63;;;31.80;36.63
61674;BME280;47573;43.832;5.974;2023-10-09T16:29:47;95827.59;;;31.74;35.88
61674;BME280;47573;43.832;5.974;2023-10-09T16:36:27;95835.13;;;31.63;35.62
61674;BME280;47573;43.832;5.974;2023-10-09T16:43:08;95835.44;;;31.62;36.31
61674;BME280;47573;43.832;5.974;2023-10-09T16:49:50;95826.63;;;31.55;35.77
61674;BME280;47573;43.832;5.974;2023-10-09T16:56:30;95823.94;;;31.45;36.25
61674;BME280;47573;43.832;5.974;2023-10-09T17:03:11;95830.88;;;31.32;36.42
61674;BME280;47573;43.832;5.974;2023-10-09T17:09:53;95838.66;;;31.20;36.63
61674;BME280;47573;43.832;5.974;2023-10-09T17:16:33;95841.47;;;31.05;37.07
61674;BME280;47573;43.832;5.974;2023-10-09T17:23:14;95839.81;;;31.04;37.03
61674;BME280;47573;43.832;5.974;2023-10-09T17:29:56;95845.94;;;30.91;37.35
61674;BME280;47573;43.832;5.974;2023-10-09T17:36:36;95852.56;;;30.80;37.69
61674;BME280;47573;43.832;5.974;2023-10-09T17:43:18;95858.94;;;30.65;37.91
61674;BME280;47573;43.832;5.974;2023-10-09T17:50:01;95863.06;;;30.63;38.10
61674;BME280;47573;43.832;5.974;2023-10-09T17:56:41;95865.31;;;30.46;38.59
61674;BME280;47573;43.832;5.974;2023-10-09T18:03:22;95866.13;;;30.26;38.62
61674;BME280;47573;43.832;5.974;2023-10-09T18:10:05;95868.88;;;30.21;38.56
61674;BME280;47573;43.832;5.974;2023-10-09T18:16:45;95867.78;;;30.12;38.99
61674;BME280;47573;43.832;5.974;2023-10-09T18:23:26;95871.34;;;30.02;38.89
61674;BME280;47573;43.832;5.974;2023-10-09T18:30:09;95876.00;;;29.92;39.31
61674;BME280;47573;43.832;5.974;2023-10-09T18:36:50;95874.09;;;29.92;39.67
61674;BME280;47573;43.832;5.974;2023-10-09T18:43:30;95876.84;;;29.92;39.93
61674;BME280;47573;43.832;5.974;2023-10-09T18:50:12;95884.03;;;29.93;39.76
61674;BME280;47573;43.832;5.974;2023-10-09T18:56:53;95880.16;;;29.84;40.41
61674;BME280;47573;43.832;5.974;2023-10-09T19:03:33;95885.66;;;29.79;40.28
61674;BME280;47573;43.832;5.974;2023-10-09T19:10:16;95886.75;;;29.78;40.54
61674;BME280;47573;43.832;5.974;2023-10-09T19:16:56;95882.31;;;29.77;40.95
61674;BME280;47573;43.832;5.974;2023-10-09T19:23:37;95890.00;;;29.70;41.21
61674;BME280;47573;43.832;5.974;2023-10-09T19:30:19;95894.41;;;29.66;41.32
61674;BME280;47573;43.832;5.974;2023-10-09T19:37:00;95896.06;;;29.72;42.01
61674;BME280;47573;43.832;5.974;2023-10-09T19:43:41;95896.03;;;29.67;43.70
61674;BME280;47573;43.832;5.974;2023-10-09T19:50:23;95897.16;;;29.71;44.38
61674;BME280;47573;43.832;5.974;2023-10-09T19:57:03;95900.41;;;29.53;43.57
61674;BME280;47573;43.832;5.974;2023-10-09T20:03:44;95909.47;;;29.49;43.73
61674;BME280;47573;43.832;5.974;2023-10-09T20:10:26;95904.81;;;29.49;44.20
61674;BME280;47573;43.832;5.974;2023-10-09T20:17:07;95916.91;;;29.43;44.45
61674;BME280;47573;43.832;5.974;2023-10-09T20:23:47;95915.50;;;29.35;45.12
61674;BME280;47573;43.832;5.974;2023-10-09T20:30:30;95923.41;;;29.22;45.59
61674;BME280;47573;43.832;5.974;2023-10-09T20:37:14;95912.97;;;29.24;45.67
61674;BME280;47573;43.832;5.974;2023-10-09T20:43:54;95915.41;;;29.15;45.53
61674;BME280;47573;43.832;5.974;2023-10-09T20:50:40;95911.28;;;29.18;45.86
61674;BME280;47573;43.832;5.974;2023-10-09T20:57:21;95905.81;;;29.23;45.98
61674;BME280;47573;43.832;5.974;2023-10-09T21:04:01;95906.75;;;28.97;46.99
61674;BME280;47573;43.832;5.974;2023-10-09T21:10:43;95908.47;;;29.08;46.85
61674;BME280;47573;43.832;5.974;2023-10-09T21:17:24;95904.56;;;29.56;45.36
61674;BME280;47573;43.832;5.974;2023-10-09T21:24:05;95913.66;;;29.61;44.97
61674;BME280;47573;43.832;5.974;2023-10-09T21:30:47;95908.72;;;29.68;44.74
61674;BME280;47573;43.832;5.974;2023-10-09T21:37:28;95909.28;;;29.70;45.44
61674;BME280;47573;43.832;5.974;2023-10-09T21:44:08;95911.81;;;29.77;45.20
61674;BME280;47573;43.832;5.974;2023-10-09T21:50:50;95907.13;;;29.82;45.01
61674;BME280;47573;43.832;5.974;2023-10-09T21:57:31;95904.41;;;29.87;44.71
61674;BME280;47573;43.832;5.974;2023-10-09T22:04:11;95903.56;;;29.92;44.66
61674;BME280;47573;43.832;5.974;2023-10-09T22:10:53;95898.34;;;29.95;44.85
61674;BME280;47573;43.832;5.974;2023-10-09T22:17:34;95891.19;;;29.99;44.56
61674;BME280;47573;43.832;5.974;2023-10-09T22:24:14;95888.44;;;29.99;44.81
61674;BME280;47573;43.832;5.974;2023-10-09T22:30:56;95883.47;;;30.01;44.64
61674;BME280;47573;43.832;5.974;2023-10-09T22:37:37;95879.63;;;29.97;44.43
61674;BME280;47573;43.832;5.974;2023-10-09T22:44:18;95873.56;;;30.05;44.51
61674;BME280;47573;43.832;5.974;2023-10-09T22:51:00;95879.06;;;30.10;44.66
61674;BME280;47573;43.832;5.974;2023-10-09T22:57:40;95872.72;;;30.05;44.61
61674;BME280;47573;43.832;5.974;2023-10-09T23:04:22;95871.34;;;30.02;44.93
61674;BME280;47573;43.832;5.974;2023-10-09T23:11:04;95861.44;;;30.01;45.14
61674;BME280;47573;43.832;5.974;2023-10-09T23:17:45;95858.69;;;30.01;45.18
61674;BME280;47573;43.832;5.974;2023-10-09T23:24:25;95858.69;;;30.01;44.73
61674;BME280;47573;43.832;5.974;2023-10-09T23:31:07;95855.66;;;30.03;44.81
61674;BME280;47573;43.832;5.974;2023-10-09T23:37:49;95857.84;;;30.01;44.65
61674;BME280;47573;43.832;5.974;2023-10-09T23:44:30;95847.09;;;30.04;44.80
61674;BME280;47573;43.832;5.974;2023-10-09T23:51:12;95850.16;;;30.03;45.00
61674;BME280;47573;43.832;5.974;2023-10-09T23:57:52;95839.41;;;30.06;44.97
